sensor_id;sensor_type;location;lat;lon;timestamp;P1;durP1;ratioP1;P2;durP2;ratioP2
55497;SDS011;41357;52.806;18.268;2023-04-25T00:01:53;9.68;;;5.38;;
55497;SDS011;41357;52.806;18.268;2023-04-25T00:04:19;11.95;;;6.63;;
55497;SDS011;41357;52.806;18.268;2023-04-25T00:06:46;13.98;;;6.22;;
55497;SDS011;41357;52.806;18.268;2023-04-25T00:09:12;13.20;;;6.82;;
55497;SDS011;41357;52.806;18.268;2023-04-25T00:11:39;13.85;;;8.23;;
55497;SDS011;41357;52.806;18.268;2023-04-25T00:14:05;17.52;;;7.43;;
55497;SDS011;41357;52.806;18.268;2023-04-25T00:16:31;8.23;;;5.40;;
55497;SDS011;41357;52.806;18.268;2023-04-25T00:18:58;8.23;;;5.20;;
55497;SDS011;41357;52.806;18.268;2023-04-25T00:21:25;8.50;;;4.78;;
55497;SDS011;41357;52.806;18.268;2023-04-25T00:23:54;6.20;;;4.03;;
55497;SDS011;41357;52.806;18.268;2023-04-25T00:26:21;8.50;;;4.30;;
55497;SDS011;41357;52.806;18.268;2023-04-25T00:28:47;6.45;;;3.58;;
55497;SDS011;41357;52.806;18.268;2023-04-25T00:31:13;6.05;;;3.88;;
55497;SDS011;41357;52.806;18.268;2023-04-25T00:33:39;5.50;;;3.80;;
55497;SDS011;41357;52.806;18.268;2023-04-25T00:36:06;6.78;;;3.88;;
55497;SDS011;41357;52.806;18.268;2023-04-25T00:38:32;13.60;;;4.05;;
55497;SDS011;41357;52.806;18.268;2023-04-25T00:40:58;5.72;;;3.60;;
55497;SDS011;41357;52.806;18.268;2023-04-25T00:43:27;6.07;;;3.25;;
55497;SDS011;41357;52.806;18.268;2023-04-25T00:45:54;6.75;;;2.90;;
55497;SDS011;41357;52.806;18.268;2023-04-25T00:48:22;7.70;;;3.47;;
55497;SDS011;41357;52.806;18.268;2023-04-25T00:50:51;4.50;;;3.13;;
55497;SDS011;41357;52.806;18.268;2023-04-25T00:53:18;5.57;;;3.33;;
55497;SDS011;41357;52.806;18.268;2023-04-25T00:55:44;4.72;;;2.92;;
55497;SDS011;41357;52.806;18.268;2023-04-25T00:58:11;4.53;;;3.20;;
55497;SDS011;41357;52.806;18.268;2023-04-25T01:00:37;3.80;;;2.70;;
55497;SDS011;41357;52.806;18.268;2023-04-25T01:03:03;4.88;;;3.42;;
55497;SDS011;41357;52.806;18.268;2023-04-25T01:05:29;4.43;;;3.10;;
55497;SDS011;41357;52.806;18.268;2023-04-25T01:07:55;7.65;;;3.10;;
55497;SDS011;41357;52.806;18.268;2023-04-25T01:10:22;5.90;;;2.58;;
55497;SDS011;41357;52.806;18.268;2023-04-25T01:12:48;3.92;;;2.58;;
55497;SDS011;41357;52.806;18.268;2023-04-25T01:15:14;5.13;;;3.22;;
55497;SDS011;41357;52.806;18.268;2023-04-25T01:17:40;5.78;;;2.92;;
55497;SDS011;41357;52.806;18.268;2023-04-25T01:20:08;8.38;;;3.33;;
55497;SDS011;41357;52.806;18.268;2023-04-25T01:22:34;5.32;;;2.60;;
55497;SDS011;41357;52.806;18.268;2023-04-25T01:25:00;6.07;;;3.13;;
55497;SDS011;41357;52.806;18.268;2023-04-25T01:27:27;4.00;;;2.58;;
55497;SDS011;41357;52.806;18.268;2023-04-25T01:29:54;2.50;;;1.75;;
55497;SDS011;41357;52.806;18.268;2023-04-25T01:32:21;4.15;;;2.63;;
55497;SDS011;41357;52.806;18.268;2023-04-25T01:34:48;4.68;;;2.40;;
55497;SDS011;41357;52.806;18.268;2023-04-25T01:37:14;4.07;;;2.78;;
55497;SDS011;41357;52.806;18.268;2023-04-25T01:39:40;3.42;;;2.10;;
55497;SDS011;41357;52.806;18.268;2023-04-25T01:42:06;3.97;;;1.98;;
55497;SDS011;41357;52.806;18.268;2023-04-25T01:44:32;3.03;;;1.95;;
55497;SDS011;41357;52.806;18.268;2023-04-25T01:46:58;3.20;;;2.20;;
55497;SDS011;41357;52.806;18.268;2023-04-25T01:49:25;4.38;;;2.50;;
55497;SDS011;41357;52.806;18.268;2023-04-25T01:51:51;4.35;;;2.55;;
55497;SDS011;41357;52.806;18.268;2023-04-25T01:54:17;5.53;;;2.45;;
55497;SDS011;41357;52.806;18.268;2023-04-25T01:56:49;2.58;;;1.70;;
55497;SDS011;41357;52.806;18.268;2023-04-25T01:59:16;5.57;;;2.20;;
55497;SDS011;41357;52.806;18.268;2023-04-25T02:01:42;6.25;;;1.70;;
55497;SDS011;41357;52.806;18.268;2023-04-25T02:04:08;2.85;;;1.80;;
55497;SDS011;41357;52.806;18.268;2023-04-25T02:06:34;3.90;;;1.42;;
55497;SDS011;41357;52.806;18.268;2023-04-25T02:09:00;1.88;;;1.15;;
55497;SDS011;41357;52.806;18.268;2023-04-25T02:11:26;2.60;;;1.48;;
55497;SDS011;41357;52.806;18.268;2023-04-25T02:13:52;1.52;;;1.15;;
55497;SDS011;41357;52.806;18.268;2023-04-25T02:16:18;3.22;;;0.98;;
55497;SDS011;41357;52.806;18.268;2023-04-25T02:18:44;1.67;;;1.35;;
55497;SDS011;41357;52.806;18.268;2023-04-25T02:21:11;2.38;;;1.50;;
55497;SDS011;41357;52.806;18.268;2023-04-25T02:23:37;2.58;;;1.40;;
55497;SDS011;41357;52.806;18.268;2023-04-25T02:26:03;1.83;;;1.30;;
55497;SDS011;41357;52.806;18.268;2023-04-25T02:28:29;3.97;;;1.70;;
55497;SDS011;41357;52.806;18.268;2023-04-25T02:30:56;1.92;;;1.10;;
55497;SDS011;41357;52.806;18.268;2023-04-25T02:33:22;4.53;;;1.50;;
55497;SDS011;41357;52.806;18.268;2023-04-25T02:35:48;2.38;;;1.20;;
55497;SDS011;41357;52.806;18.268;2023-04-25T02:38:14;2.38;;;1.60;;
55497;SDS011;41357;52.806;18.268;2023-04-25T02:40:40;1.95;;;1.38;;
55497;SDS011;41357;52.806;18.268;2023-04-25T02:43:06;1.48;;;1.10;;
55497;SDS011;41357;52.806;18.268;2023-04-25T02:45:32;1.50;;;1.10;;
55497;SDS011;41357;52.806;18.268;2023-04-25T02:47:59;2.92;;;1.40;;
55497;SDS011;41357;52.806;18.268;2023-04-25T02:50:25;2.42;;;1.40;;
55497;SDS011;41357;52.806;18.268;2023-04-25T02:52:51;1.13;;;0.70;;
55497;SDS011;41357;52.806;18.268;2023-04-25T02:55:17;1.48;;;1.00;;
55497;SDS011;41357;52.806;18.268;2023-04-25T02:57:43;2.53;;;1.20;;
55497;SDS011;41357;52.806;18.268;2023-04-25T03:00:09;1.95;;;0.98;;
55497;SDS011;41357;52.806;18.268;2023-04-25T03:02:36;7.03;;;1.33;;
55497;SDS011;41357;52.806;18.268;2023-04-25T03:05:03;1.67;;;0.88;;
55497;SDS011;41357;52.806;18.268;2023-04-25T03:07:29;1.33;;;0.90;;
55497;SDS011;41357;52.806;18.268;2023-04-25T03:09:55;1.58;;;1.02;;
55497;SDS011;41357;52.806;18.268;2023-04-25T03:12:21;1.40;;;1.00;;
55497;SDS011;41357;52.806;18.268;2023-04-25T03:14:47;1.48;;;0.85;;
55497;SDS011;41357;52.806;18.268;2023-04-25T03:17:13;1.70;;;1.00;;
55497;SDS011;41357;52.806;18.268;2023-04-25T03:19:40;1.40;;;0.85;;
55497;SDS011;41357;52.806;18.268;2023-04-25T03:22:06;2.08;;;1.20;;
55497;SDS011;41357;52.806;18.268;2023-04-25T03:24:32;5.13;;;0.98;;
55497;SDS011;41357;52.806;18.268;2023-04-25T03:26:58;1.02;;;0.70;;
55497;SDS011;41357;52.806;18.268;2023-04-25T03:29:25;1.88;;;0.98;;
55497;SDS011;41357;52.806;18.268;2023-04-25T03:31:52;1.55;;;0.90;;
55497;SDS011;41357;52.806;18.268;2023-04-25T03:34:18;1.17;;;0.80;;
55497;SDS011;41357;52.806;18.268;2023-04-25T03:36:46;1.73;;;1.10;;
55497;SDS011;41357;52.806;18.268;2023-04-25T03:39:12;1.25;;;0.88;;
55497;SDS011;41357;52.806;18.268;2023-04-25T03:41:38;1.90;;;1.30;;
55497;SDS011;41357;52.806;18.268;2023-04-25T03:44:05;1.65;;;0.93;;
55497;SDS011;41357;52.806;18.268;2023-04-25T03:46:31;1.60;;;0.93;;
55497;SDS011;41357;52.806;18.268;2023-04-25T03:48:57;3.47;;;1.35;;
55497;SDS011;41357;52.806;18.268;2023-04-25T03:51:24;2.08;;;0.80;;
55497;SDS011;41357;52.806;18.268;2023-04-25T03:53:51;1.90;;;1.10;;
55497;SDS011;41357;52.806;18.268;2023-04-25T03:56:17;2.63;;;1.35;;
55497;SDS011;41357;52.806;18.268;2023-04-25T03:58:43;2.03;;;0.95;;
55497;SDS011;41357;52.806;18.268;2023-04-25T04:01:09;2.30;;;1.02;;
55497;SDS011;41357;52.806;18.268;2023-04-25T04:03:36;1.95;;;1.00;;
55497;SDS011;41357;52.806;18.268;2023-04-25T04:06:03;1.52;;;1.10;;
55497;SDS011;41357;52.806;18.268;2023-04-25T04:08:30;2.22;;;1.20;;
55497;SDS011;41357;52.806;18.268;2023-04-25T04:10:57;2.95;;;1.25;;
55497;SDS011;41357;52.806;18.268;2023-04-25T04:13:25;1.48;;;1.15;;
55497;SDS011;41357;52.806;18.268;2023-04-25T04:15:51;2.45;;;1.30;;
55497;SDS011;41357;52.806;18.268;2023-04-25T04:18:17;1.30;;;0.90;;
55497;SDS011;41357;52.806;18.268;2023-04-25T04:20:43;3.67;;;1.38;;
55497;SDS011;41357;52.806;18.268;2023-04-25T04:23:09;1.65;;;1.20;;
55497;SDS011;41357;52.806;18.268;2023-04-25T04:25:36;2.42;;;1.27;;
55497;SDS011;41357;52.806;18.268;2023-04-25T04:28:02;5.68;;;2.05;;
55497;SDS011;41357;52.806;18.268;2023-04-25T04:30:28;2.60;;;1.65;;
55497;SDS011;41357;52.806;18.268;2023-04-25T04:32:56;4.15;;;1.60;;
55497;SDS011;41357;52.806;18.268;2023-04-25T04:35:22;4.40;;;1.85;;
55497;SDS011;41357;52.806;18.268;2023-04-25T04:37:48;2.55;;;1.67;;
55497;SDS011;41357;52.806;18.268;2023-04-25T04:40:14;1.63;;;1.10;;
55497;SDS011;41357;52.806;18.268;2023-04-25T04:42:41;4.68;;;1.25;;
55497;SDS011;41357;52.806;18.268;2023-04-25T04:45:08;2.63;;;1.63;;
55497;SDS011;41357;52.806;18.268;2023-04-25T04:47:35;1.92;;;1.10;;
55497;SDS011;41357;52.806;18.268;2023-04-25T04:50:02;2.22;;;1.30;;
55497;SDS011;41357;52.806;18.268;2023-04-25T04:52:29;4.00;;;2.10;;
55497;SDS011;41357;52.806;18.268;2023-04-25T04:54:55;4.47;;;1.58;;
55497;SDS011;41357;52.806;18.268;2023-04-25T04:57:21;1.70;;;1.00;;
55497;SDS011;41357;52.806;18.268;2023-04-25T04:59:47;1.88;;;1.10;;
55497;SDS011;41357;52.806;18.268;2023-04-25T05:02:15;2.05;;;1.50;;
55497;SDS011;41357;52.806;18.268;2023-04-25T05:04:41;2.58;;;1.42;;
55497;SDS011;41357;52.806;18.268;2023-04-25T05:07:07;7.28;;;1.67;;
55497;SDS011;41357;52.806;18.268;2023-04-25T05:09:33;1.55;;;0.80;;
55497;SDS011;41357;52.806;18.268;2023-04-25T05:11:59;1.73;;;1.02;;
55497;SDS011;41357;52.806;18.268;2023-04-25T05:14:26;2.38;;;1.52;;
55497;SDS011;41357;52.806;18.268;2023-04-25T05:16:52;3.67;;;1.67;;
55497;SDS011;41357;52.806;18.268;2023-04-25T05:19:18;4.25;;;1.60;;
55497;SDS011;41357;52.806;18.268;2023-04-25T05:21:44;4.43;;;1.15;;
55497;SDS011;41357;52.806;18.268;2023-04-25T05:24:10;2.60;;;1.60;;
55497;SDS011;41357;52.806;18.268;2023-04-25T05:26:37;3.53;;;1.52;;
55497;SDS011;41357;52.806;18.268;2023-04-25T05:29:03;4.20;;;1.75;;
55497;SDS011;41357;52.806;18.268;2023-04-25T05:31:30;2.17;;;1.85;;
55497;SDS011;41357;52.806;18.268;2023-04-25T05:33:57;3.00;;;1.50;;
55497;SDS011;41357;52.806;18.268;2023-04-25T05:36:23;3.30;;;1.83;;
55497;SDS011;41357;52.806;18.268;2023-04-25T05:38:49;3.83;;;2.08;;
55497;SDS011;41357;52.806;18.268;2023-04-25T05:41:15;4.45;;;1.98;;
55497;SDS011;41357;52.806;18.268;2023-04-25T05:43:41;2.78;;;1.60;;
55497;SDS011;41357;52.806;18.268;2023-04-25T05:46:12;7.63;;;1.38;;
55497;SDS011;41357;52.806;18.268;2023-04-25T05:48:38;3.03;;;1.95;;
55497;SDS011;41357;52.806;18.268;2023-04-25T05:51:04;7.32;;;1.42;;
55497;SDS011;41357;52.806;18.268;2023-04-25T05:53:31;5.40;;;1.88;;
55497;SDS011;41357;52.806;18.268;2023-04-25T05:55:57;5.00;;;2.30;;
55497;SDS011;41357;52.806;18.268;2023-04-25T05:58:23;1.77;;;1.35;;
55497;SDS011;41357;52.806;18.268;2023-04-25T06:00:49;2.60;;;1.63;;
55497;SDS011;41357;52.806;18.268;2023-04-25T06:03:15;4.03;;;1.65;;
55497;SDS011;41357;52.806;18.268;2023-04-25T06:05:42;2.30;;;1.63;;
55497;SDS011;41357;52.806;18.268;2023-04-25T06:08:08;2.20;;;1.17;;
55497;SDS011;41357;52.806;18.268;2023-04-25T06:10:35;4.25;;;2.33;;
55497;SDS011;41357;52.806;18.268;2023-04-25T06:13:02;6.95;;;2.42;;
55497;SDS011;41357;52.806;18.268;2023-04-25T06:15:28;3.80;;;1.80;;
55497;SDS011;41357;52.806;18.268;2023-04-25T06:17:55;3.50;;;2.00;;
55497;SDS011;41357;52.806;18.268;2023-04-25T06:20:21;5.60;;;2.85;;
55497;SDS011;41357;52.806;18.268;2023-04-25T06:22:49;6.30;;;2.58;;
55497;SDS011;41357;52.806;18.268;2023-04-25T06:25:16;2.85;;;2.17;;
55497;SDS011;41357;52.806;18.268;2023-04-25T06:27:42;10.07;;;3.58;;
55497;SDS011;41357;52.806;18.268;2023-04-25T06:30:09;9.23;;;2.85;;
55497;SDS011;41357;52.806;18.268;2023-04-25T06:32:37;5.38;;;3.03;;
55497;SDS011;41357;52.806;18.268;2023-04-25T06:35:03;6.45;;;3.60;;
55497;SDS011;41357;52.806;18.268;2023-04-25T06:37:30;7.45;;;3.47;;
55497;SDS011;41357;52.806;18.268;2023-04-25T06:39:56;5.60;;;3.15;;
55497;SDS011;41357;52.806;18.268;2023-04-25T06:42:22;6.03;;;2.35;;
55497;SDS011;41357;52.806;18.268;2023-04-25T06:44:48;10.57;;;1.95;;
55497;SDS011;41357;52.806;18.268;2023-04-25T06:47:14;6.25;;;2.88;;
55497;SDS011;41357;52.806;18.268;2023-04-25T06:49:41;4.10;;;2.40;;
55497;SDS011;41357;52.806;18.268;2023-04-25T06:52:07;4.70;;;3.08;;
55497;SDS011;41357;52.806;18.268;2023-04-25T06:54:33;12.52;;;3.75;;
55497;SDS011;41357;52.806;18.268;2023-04-25T06:56:59;5.55;;;3.13;;
55497;SDS011;41357;52.806;18.268;2023-04-25T06:59:26;9.70;;;4.05;;
55497;SDS011;41357;52.806;18.268;2023-04-25T07:01:52;8.38;;;3.17;;
55497;SDS011;41357;52.806;18.268;2023-04-25T07:04:18;4.53;;;2.42;;
55497;SDS011;41357;52.806;18.268;2023-04-25T07:06:44;3.47;;;2.17;;
55497;SDS011;41357;52.806;18.268;2023-04-25T07:09:12;6.05;;;2.15;;
55497;SDS011;41357;52.806;18.268;2023-04-25T07:11:38;2.88;;;2.22;;
55497;SDS011;41357;52.806;18.268;2023-04-25T07:14:05;8.90;;;2.95;;
55497;SDS011;41357;52.806;18.268;2023-04-25T07:16:31;6.03;;;3.22;;
55497;SDS011;41357;52.806;18.268;2023-04-25T07:18:57;4.30;;;2.60;;
55497;SDS011;41357;52.806;18.268;2023-04-25T07:21:24;3.17;;;1.90;;
55497;SDS011;41357;52.806;18.268;2023-04-25T07:23:51;3.03;;;2.28;;
55497;SDS011;41357;52.806;18.268;2023-04-25T07:26:17;6.38;;;3.22;;
55497;SDS011;41357;52.806;18.268;2023-04-25T07:28:43;7.40;;;4.45;;
55497;SDS011;41357;52.806;18.268;2023-04-25T07:31:09;8.27;;;4.65;;
55497;SDS011;41357;52.806;18.268;2023-04-25T07:33:36;6.03;;;3.78;;
55497;SDS011;41357;52.806;18.268;2023-04-25T07:36:02;14.43;;;6.43;;
55497;SDS011;41357;52.806;18.268;2023-04-25T07:38:28;5.82;;;3.90;;
55497;SDS011;41357;52.806;18.268;2023-04-25T07:40:54;6.90;;;4.22;;
55497;SDS011;41357;52.806;18.268;2023-04-25T07:43:20;9.40;;;5.10;;
55497;SDS011;41357;52.806;18.268;2023-04-25T07:45:47;7.07;;;4.28;;
55497;SDS011;41357;52.806;18.268;2023-04-25T07:48:17;11.05;;;5.32;;
55497;SDS011;41357;52.806;18.268;2023-04-25T07:50:43;7.40;;;3.88;;
55497;SDS011;41357;52.806;18.268;2023-04-25T07:53:10;3.47;;;2.42;;
55497;SDS011;41357;52.806;18.268;2023-04-25T07:55:36;7.68;;;3.40;;
55497;SDS011;41357;52.806;18.268;2023-04-25T07:58:05;7.13;;;4.28;;
55497;SDS011;41357;52.806;18.268;2023-04-25T08:00:31;12.23;;;5.78;;
55497;SDS011;41357;52.806;18.268;2023-04-25T08:02:57;7.30;;;4.88;;
55497;SDS011;41357;52.806;18.268;2023-04-25T08:05:23;12.32;;;3.72;;
55497;SDS011;41357;52.806;18.268;2023-04-25T08:07:50;4.95;;;3.35;;
55497;SDS011;41357;52.806;18.268;2023-04-25T08:10:16;7.85;;;3.67;;
55497;SDS011;41357;52.806;18.268;2023-04-25T08:12:42;7.53;;;4.00;;
55497;SDS011;41357;52.806;18.268;2023-04-25T08:15:08;10.88;;;5.75;;
55497;SDS011;41357;52.806;18.268;2023-04-25T08:17:35;10.43;;;5.90;;
55497;SDS011;41357;52.806;18.268;2023-04-25T08:20:01;11.43;;;5.40;;
55497;SDS011;41357;52.806;18.268;2023-04-25T08:22:30;11.52;;;5.75;;
55497;SDS011;41357;52.806;18.268;2023-04-25T08:24:57;10.60;;;4.25;;
55497;SDS011;41357;52.806;18.268;2023-04-25T08:27:23;6.43;;;2.63;;
55497;SDS011;41357;52.806;18.268;2023-04-25T08:29:49;7.10;;;2.50;;
55497;SDS011;41357;52.806;18.268;2023-04-25T08:32:16;5.93;;;2.42;;
55497;SDS011;41357;52.806;18.268;2023-04-25T08:34:42;5.22;;;3.03;;
55497;SDS011;41357;52.806;18.268;2023-04-25T08:37:09;4.60;;;3.00;;
55497;SDS011;41357;52.806;18.268;2023-04-25T08:39:35;3.97;;;2.67;;
55497;SDS011;41357;52.806;18.268;2023-04-25T08:42:05;10.27;;;3.30;;
55497;SDS011;41357;52.806;18.268;2023-04-25T08:44:33;6.30;;;2.72;;
55497;SDS011;41357;52.806;18.268;2023-04-25T08:47:01;7.75;;;2.88;;
55497;SDS011;41357;52.806;18.268;2023-04-25T08:49:28;7.05;;;3.20;;
55497;SDS011;41357;52.806;18.268;2023-04-25T08:51:54;5.95;;;2.72;;
55497;SDS011;41357;52.806;18.268;2023-04-25T08:54:21;7.25;;;2.67;;
55497;SDS011;41357;52.806;18.268;2023-04-25T08:56:51;4.55;;;2.15;;
55497;SDS011;41357;52.806;18.268;2023-04-25T08:59:17;5.32;;;3.05;;
55497;SDS011;41357;52.806;18.268;2023-04-25T09:01:43;6.22;;;2.70;;
55497;SDS011;41357;52.806;18.268;2023-04-25T09:04:11;3.78;;;2.15;;
55497;SDS011;41357;52.806;18.268;2023-04-25T09:06:37;3.53;;;2.25;;
55497;SDS011;41357;52.806;18.268;2023-04-25T09:09:04;4.45;;;1.83;;
55497;SDS011;41357;52.806;18.268;2023-04-25T09:11:31;4.28;;;1.33;;
55497;SDS011;41357;52.806;18.268;2023-04-25T09:14:19;2.28;;;1.88;;
55497;SDS011;41357;52.806;18.268;2023-04-25T09:19:24;2.90;;;1.23;;
55497;SDS011;41357;52.806;18.268;2023-04-25T09:21:50;2.63;;;1.20;;
55497;SDS011;41357;52.806;18.268;2023-04-25T09:24:20;3.28;;;2.15;;
55497;SDS011;41357;52.806;18.268;2023-04-25T09:26:56;4.05;;;1.90;;
55497;SDS011;41357;52.806;18.268;2023-04-25T09:29:28;4.72;;;2.03;;
55497;SDS011;41357;52.806;18.268;2023-04-25T09:34:54;7.03;;;2.42;;
55497;SDS011;41357;52.806;18.268;2023-04-25T09:39:50;5.43;;;2.75;;
55497;SDS011;41357;52.806;18.268;2023-04-25T09:42:17;5.30;;;2.95;;
55497;SDS011;41357;52.806;18.268;2023-04-25T09:44:46;5.70;;;2.67;;
55497;SDS011;41357;52.806;18.268;2023-04-25T09:47:13;3.22;;;1.75;;
55497;SDS011;41357;52.806;18.268;2023-04-25T09:49:40;3.90;;;2.25;;
55497;SDS011;41357;52.806;18.268;2023-04-25T09:52:07;3.35;;;2.22;;
55497;SDS011;41357;52.806;18.268;2023-04-25T09:54:34;4.30;;;2.70;;
55497;SDS011;41357;52.806;18.268;2023-04-25T09:57:21;2.63;;;1.75;;
55497;SDS011;41357;52.806;18.268;2023-04-25T09:59:48;5.35;;;2.40;;
55497;SDS011;41357;52.806;18.268;2023-04-25T10:02:16;5.25;;;2.35;;
55497;SDS011;41357;52.806;18.268;2023-04-25T10:04:44;8.25;;;3.10;;
55497;SDS011;41357;52.806;18.268;2023-04-25T10:07:11;3.78;;;2.45;;
55497;SDS011;41357;52.806;18.268;2023-04-25T10:09:38;6.72;;;2.60;;
55497;SDS011;41357;52.806;18.268;2023-04-25T10:12:05;5.38;;;2.78;;
55497;SDS011;41357;52.806;18.268;2023-04-25T10:14:32;3.38;;;1.85;;
55497;SDS011;41357;52.806;18.268;2023-04-25T10:16:58;4.75;;;2.45;;
55497;SDS011;41357;52.806;18.268;2023-04-25T10:19:25;5.88;;;2.97;;
55497;SDS011;41357;52.806;18.268;2023-04-25T10:21:52;9.02;;;3.33;;
55497;SDS011;41357;52.806;18.268;2023-04-25T10:24:20;3.50;;;1.98;;
55497;SDS011;41357;52.806;18.268;2023-04-25T10:26:46;4.32;;;1.70;;
55497;SDS011;41357;52.806;18.268;2023-04-25T10:29:14;9.00;;;2.28;;
55497;SDS011;41357;52.806;18.268;2023-04-25T10:31:47;2.15;;;1.40;;
55497;SDS011;41357;52.806;18.268;2023-04-25T10:34:13;2.78;;;1.58;;
55497;SDS011;41357;52.806;18.268;2023-04-25T10:36:39;2.90;;;1.80;;
55497;SDS011;41357;52.806;18.268;2023-04-25T10:39:05;2.83;;;1.70;;
55497;SDS011;41357;52.806;18.268;2023-04-25T10:41:55;6.13;;;1.98;;
55497;SDS011;41357;52.806;18.268;2023-04-25T10:44:20;2.70;;;1.98;;
55497;SDS011;41357;52.806;18.268;2023-04-25T10:46:46;2.83;;;1.33;;
55497;SDS011;41357;52.806;18.268;2023-04-25T10:49:28;4.38;;;1.23;;
55497;SDS011;41357;52.806;18.268;2023-04-25T10:54:46;3.65;;;1.48;;
55497;SDS011;41357;52.806;18.268;2023-04-25T10:59:58;2.85;;;1.25;;
55497;SDS011;41357;52.806;18.268;2023-04-25T11:02:25;1.50;;;1.05;;
55497;SDS011;41357;52.806;18.268;2023-04-25T11:04:53;5.05;;;1.02;;
55497;SDS011;41357;52.806;18.268;2023-04-25T11:07:33;3.53;;;1.45;;
55497;SDS011;41357;52.806;18.268;2023-04-25T11:10:03;2.22;;;1.10;;
55497;SDS011;41357;52.806;18.268;2023-04-25T11:12:31;2.70;;;1.40;;
55497;SDS011;41357;52.806;18.268;2023-04-25T11:15:03;2.90;;;1.55;;
55497;SDS011;41357;52.806;18.268;2023-04-25T11:17:30;2.05;;;1.27;;
55497;SDS011;41357;52.806;18.268;2023-04-25T11:19:56;2.33;;;1.23;;
55497;SDS011;41357;52.806;18.268;2023-04-25T11:22:22;4.55;;;1.20;;
55497;SDS011;41357;52.806;18.268;2023-04-25T11:24:48;2.45;;;1.10;;
55497;SDS011;41357;52.806;18.268;2023-04-25T11:27:15;3.90;;;1.00;;
55497;SDS011;41357;52.806;18.268;2023-04-25T11:29:42;4.05;;;0.82;;
55497;SDS011;41357;52.806;18.268;2023-04-25T11:32:08;3.58;;;1.27;;
55497;SDS011;41357;52.806;18.268;2023-04-25T11:34:34;4.88;;;1.60;;
55497;SDS011;41357;52.806;18.268;2023-04-25T11:37:01;2.47;;;1.33;;
55497;SDS011;41357;52.806;18.268;2023-04-25T11:39:27;2.22;;;1.38;;
55497;SDS011;41357;52.806;18.268;2023-04-25T11:41:54;5.65;;;1.67;;
55497;SDS011;41357;52.806;18.268;2023-04-25T11:44:21;2.03;;;1.23;;
55497;SDS011;41357;52.806;18.268;2023-04-25T11:46:47;2.83;;;1.42;;
55497;SDS011;41357;52.806;18.268;2023-04-25T11:49:13;1.65;;;1.20;;
55497;SDS011;41357;52.806;18.268;2023-04-25T11:51:44;2.90;;;1.08;;
55497;SDS011;41357;52.806;18.268;2023-04-25T11:54:11;2.70;;;1.20;;
55497;SDS011;41357;52.806;18.268;2023-04-25T11:56:40;2.72;;;1.48;;
55497;SDS011;41357;52.806;18.268;2023-04-25T11:59:07;2.78;;;1.45;;
55497;SDS011;41357;52.806;18.268;2023-04-25T12:01:34;4.72;;;1.50;;
55497;SDS011;41357;52.806;18.268;2023-04-25T12:06:59;4.68;;;1.70;;
55497;SDS011;41357;52.806;18.268;2023-04-25T12:09:30;3.65;;;1.63;;
55497;SDS011;41357;52.806;18.268;2023-04-25T12:11:57;4.68;;;1.98;;
55497;SDS011;41357;52.806;18.268;2023-04-25T12:14:27;3.50;;;1.75;;
55497;SDS011;41357;52.806;18.268;2023-04-25T12:16:55;3.40;;;1.80;;
55497;SDS011;41357;52.806;18.268;2023-04-25T12:19:22;2.30;;;1.48;;
55497;SDS011;41357;52.806;18.268;2023-04-25T12:21:49;4.75;;;1.92;;
55497;SDS011;41357;52.806;18.268;2023-04-25T12:24:21;2.05;;;1.40;;
55497;SDS011;41357;52.806;18.268;2023-04-25T12:26:50;4.13;;;1.40;;
55497;SDS011;41357;52.806;18.268;2023-04-25T12:29:23;1.98;;;1.52;;
55497;SDS011;41357;52.806;18.268;2023-04-25T12:31:51;2.22;;;1.35;;
55497;SDS011;41357;52.806;18.268;2023-04-25T12:34:18;2.63;;;1.40;;
55497;SDS011;41357;52.806;18.268;2023-04-25T12:36:44;7.38;;;1.77;;
55497;SDS011;41357;52.806;18.268;2023-04-25T12:39:16;2.50;;;1.63;;
55497;SDS011;41357;52.806;18.268;2023-04-25T12:41:44;3.55;;;1.95;;
55497;SDS011;41357;52.806;18.268;2023-04-25T12:44:10;2.90;;;1.73;;
55497;SDS011;41357;52.806;18.268;2023-04-25T12:46:37;6.65;;;2.00;;
55497;SDS011;41357;52.806;18.268;2023-04-25T12:49:03;3.10;;;1.75;;
55497;SDS011;41357;52.806;18.268;2023-04-25T12:51:31;3.97;;;1.83;;
55497;SDS011;41357;52.806;18.268;2023-04-25T12:53:58;3.80;;;1.50;;
55497;SDS011;41357;52.806;18.268;2023-04-25T12:56:25;3.80;;;1.70;;
55497;SDS011;41357;52.806;18.268;2023-04-25T12:58:52;6.68;;;1.83;;
55497;SDS011;41357;52.806;18.268;2023-04-25T13:01:18;2.67;;;1.80;;
55497;SDS011;41357;52.806;18.268;2023-04-25T13:03:45;2.20;;;1.60;;
55497;SDS011;41357;52.806;18.268;2023-04-25T13:06:12;3.63;;;1.88;;
55497;SDS011;41357;52.806;18.268;2023-04-25T13:08:38;7.18;;;1.67;;
55497;SDS011;41357;52.806;18.268;2023-04-25T13:11:06;4.30;;;1.40;;
55497;SDS011;41357;52.806;18.268;2023-04-25T13:13:32;2.92;;;1.70;;
55497;SDS011;41357;52.806;18.268;2023-04-25T13:16:03;5.03;;;1.67;;
55497;SDS011;41357;52.806;18.268;2023-04-25T13:18:29;10.02;;;2.00;;
55497;SDS011;41357;52.806;18.268;2023-04-25T13:20:56;6.05;;;2.00;;
55497;SDS011;41357;52.806;18.268;2023-04-25T13:23:22;2.58;;;1.48;;
55497;SDS011;41357;52.806;18.268;2023-04-25T13:25:49;4.07;;;1.73;;
55497;SDS011;41357;52.806;18.268;2023-04-25T13:28:15;1.58;;;1.13;;
55497;SDS011;41357;52.806;18.268;2023-04-25T13:30:42;2.90;;;1.58;;
55497;SDS011;41357;52.806;18.268;2023-04-25T13:33:08;4.03;;;1.80;;
55497;SDS011;41357;52.806;18.268;2023-04-25T13:35:36;3.38;;;1.85;;
55497;SDS011;41357;52.806;18.268;2023-04-25T13:38:02;4.97;;;1.63;;
55497;SDS011;41357;52.806;18.268;2023-04-25T13:40:29;3.20;;;1.65;;
55497;SDS011;41357;52.806;18.268;2023-04-25T13:42:57;3.83;;;2.00;;
55497;SDS011;41357;52.806;18.268;2023-04-25T13:45:24;2.72;;;1.65;;
55497;SDS011;41357;52.806;18.268;2023-04-25T13:47:50;6.07;;;1.70;;
55497;SDS011;41357;52.806;18.268;2023-04-25T13:50:16;3.67;;;1.92;;
55497;SDS011;41357;52.806;18.268;2023-04-25T13:52:43;4.65;;;1.95;;
55497;SDS011;41357;52.806;18.268;2023-04-25T13:55:10;2.80;;;2.03;;
55497;SDS011;41357;52.806;18.268;2023-04-25T13:57:36;6.22;;;2.10;;
55497;SDS011;41357;52.806;18.268;2023-04-25T14:00:03;3.65;;;2.10;;
55497;SDS011;41357;52.806;18.268;2023-04-25T14:02:37;3.33;;;2.13;;
55497;SDS011;41357;52.806;18.268;2023-04-25T14:05:03;3.47;;;1.85;;
55497;SDS011;41357;52.806;18.268;2023-04-25T14:07:29;4.20;;;2.33;;
55497;SDS011;41357;52.806;18.268;2023-04-25T14:09:56;6.95;;;2.83;;
55497;SDS011;41357;52.806;18.268;2023-04-25T14:12:25;6.30;;;2.63;;
55497;SDS011;41357;52.806;18.268;2023-04-25T14:14:51;7.07;;;2.75;;
55497;SDS011;41357;52.806;18.268;2023-04-25T14:17:20;5.55;;;2.75;;
55497;SDS011;41357;52.806;18.268;2023-04-25T14:19:46;5.97;;;2.42;;
55497;SDS011;41357;52.806;18.268;2023-04-25T14:22:13;4.05;;;1.90;;
55497;SDS011;41357;52.806;18.268;2023-04-25T14:24:43;5.38;;;2.53;;
55497;SDS011;41357;52.806;18.268;2023-04-25T14:27:09;7.22;;;2.50;;
55497;SDS011;41357;52.806;18.268;2023-04-25T14:29:35;6.30;;;2.92;;
55497;SDS011;41357;52.806;18.268;2023-04-25T14:32:01;7.10;;;3.15;;
55497;SDS011;41357;52.806;18.268;2023-04-25T14:34:28;4.20;;;2.30;;
55497;SDS011;41357;52.806;18.268;2023-04-25T14:36:54;5.60;;;3.08;;
55497;SDS011;41357;52.806;18.268;2023-04-25T14:42:24;2.47;;;1.48;;
55497;SDS011;41357;52.806;18.268;2023-04-25T14:44:50;2.42;;;1.00;;
55497;SDS011;41357;52.806;18.268;2023-04-25T14:47:16;3.17;;;0.85;;
55497;SDS011;41357;52.806;18.268;2023-04-25T14:49:43;2.80;;;1.10;;
55497;SDS011;41357;52.806;18.268;2023-04-25T14:52:16;4.22;;;1.63;;